createdAt,value
2022-12-22T00:01:28.898Z,48.34
2022-12-22T00:03:19.115Z,48.78
2022-12-22T00:05:09.306Z,48.35
2022-12-22T00:06:59.548Z,49.07
2022-12-22T00:08:49.755Z,48.89
2022-12-22T00:10:40.674Z,48.47
2022-12-22T00:12:32.365Z,48.57
2022-12-22T00:14:22.453Z,48.78
2022-12-22T00:16:12.522Z,48.76
2022-12-22T00:18:02.741Z,48.76
2022-12-22T00:19:52.825Z,48.83
2022-12-22T00:21:43.080Z,49.02
2022-12-22T00:23:33.157Z,48.94
2022-12-22T00:25:23.339Z,49.40
2022-12-22T00:27:13.693Z,49.47
2022-12-22T00:29:03.766Z,49.51
2022-12-22T00:30:54.228Z,49.16
2022-12-22T00:32:45.436Z,49.68
2022-12-22T00:34:37.120Z,49.67
2022-12-22T00:36:28.269Z,49.64
2022-12-22T00:38:18.667Z,49.72
2022-12-22T00:40:09.120Z,49.53
2022-12-22T00:41:59.340Z,49.36
2022-12-22T00:43:49.510Z,49.32
2022-12-22T00:45:39.512Z,49.15
2022-12-22T00:47:32.712Z,49.34
2022-12-22T00:49:22.957Z,49.41
2022-12-22T00:51:13.111Z,49.39
2022-12-22T00:53:03.184Z,49.44
2022-12-22T00:54:53.310Z,49.34
2022-12-22T00:56:43.510Z,49.54
2022-12-22T00:58:34.244Z,49.19
2022-12-22T01:00:25.358Z,49.48
2022-12-22T01:02:15.945Z,49.18
2022-12-22T01:04:06.218Z,49.18
2022-12-22T01:05:56.589Z,49.25
2022-12-22T01:07:46.719Z,49.63
2022-12-22T01:09:37.065Z,49.84
2022-12-22T01:11:27.476Z,49.74
2022-12-22T01:13:17.783Z,49.71
2022-12-22T01:15:07.954Z,49.67
2022-12-22T01:16:57.811Z,49.84
2022-12-22T01:18:47.854Z,49.70
2022-12-22T01:20:38.129Z,49.99
2022-12-22T01:22:29.352Z,50.01
2022-12-22T01:24:19.845Z,49.61
2022-12-22T01:26:09.824Z,49.55
2022-12-22T01:27:59.748Z,49.64
2022-12-22T01:29:49.914Z,49.68
2022-12-22T01:31:44.645Z,49.72
2022-12-22T01:33:34.704Z,49.66
2022-12-22T01:35:25.648Z,49.91
2022-12-22T01:37:15.866Z,50.08
2022-12-22T01:39:05.869Z,50.15
2022-12-22T01:40:56.233Z,50.22
2022-12-22T01:42:46.446Z,50.23
2022-12-22T01:44:37.182Z,50.36
2022-12-22T01:46:45.862Z,50.13
2022-12-22T01:48:39.932Z,50.31
2022-12-22T01:50:30.678Z,50.09
2022-12-22T01:52:21.049Z,49.85
2022-12-22T01:54:11.070Z,49.95
2022-12-22T01:56:01.329Z,49.80
2022-12-22T01:57:51.599Z,49.81
2022-12-22T01:59:41.913Z,50.11
2022-12-22T02:01:32.224Z,50.13
2022-12-22T02:03:22.803Z,50.54
2022-12-22T02:05:13.363Z,50.62
2022-12-22T02:07:03.672Z,50.33
2022-12-22T02:08:54.419Z,50.71
2022-12-22T02:10:47.139Z,50.75
2022-12-22T02:13:15.737Z,50.79
2022-12-22T02:15:09.015Z,50.75
2022-12-22T02:17:03.336Z,50.80
2022-12-22T02:18:56.139Z,50.67
2022-12-22T02:20:57.651Z,50.77
2022-12-22T02:23:07.689Z,50.64
2022-12-22T02:24:59.480Z,50.45
2022-12-22T02:26:53.438Z,50.66
2022-12-22T02:28:43.894Z,50.72
2022-12-22T02:30:34.055Z,50.86
2022-12-22T02:32:25.073Z,50.82
2022-12-22T02:34:15.207Z,50.67
2022-12-22T02:36:05.099Z,50.76
2022-12-22T02:37:58.169Z,50.87
2022-12-22T02:39:48.241Z,50.85
2022-12-22T02:41:38.342Z,50.85
2022-12-22T02:43:34.812Z,50.69
2022-12-22T02:45:31.213Z,50.75
2022-12-22T02:47:24.677Z,50.66
2022-12-22T02:49:16.278Z,50.69
2022-12-22T02:51:09.360Z,50.60
2022-12-22T02:52:59.839Z,50.56
2022-12-22T02:54:49.683Z,50.68
2022-12-22T02:56:39.723Z,50.70
2022-12-22T02:58:30.511Z,50.87
2022-12-22T03:00:20.630Z,50.72
2022-12-22T03:02:10.768Z,50.74
2022-12-22T03:04:00.802Z,50.76
2022-12-22T03:05:51.033Z,50.99
2022-12-22T03:07:41.052Z,50.92
2022-12-22T03:09:31.084Z,50.93
2022-12-22T03:11:21.381Z,51.08
2022-12-22T03:13:12.035Z,50.80
2022-12-22T03:15:02.478Z,51.01
2022-12-22T03:16:52.870Z,51.07
2022-12-22T03:18:42.795Z,50.91
2022-12-22T03:20:33.024Z,50.64
2022-12-22T03:22:23.367Z,50.65
2022-12-22T03:24:13.598Z,50.92
2022-12-22T03:25:52.317Z,50.99
2022-12-22T03:27:23.943Z,51.02
2022-12-22T03:28:57.700Z,51.18
2022-12-22T03:30:29.277Z,51.06
2022-12-22T03:32:00.901Z,51.23
2022-12-22T03:33:32.581Z,50.73
2022-12-22T03:35:04.469Z,50.71
2022-12-22T03:36:36.075Z,51.02
2022-12-22T03:38:07.652Z,50.81
2022-12-22T03:39:39.399Z,50.64
2022-12-22T03:41:30.886Z,50.79
2022-12-22T03:43:21.077Z,50.48
2022-12-22T03:45:11.421Z,50.72
2022-12-22T03:46:43.074Z,50.65
2022-12-22T03:48:14.647Z,50.35
2022-12-22T03:49:46.256Z,50.30
2022-12-22T03:51:17.943Z,50.28
2022-12-22T03:52:49.585Z,50.33
2022-12-22T03:54:24.394Z,50.36
2022-12-22T03:55:56.074Z,50.46
2022-12-22T03:57:27.637Z,50.69
2022-12-22T03:58:59.279Z,50.88
2022-12-22T04:00:30.836Z,51.14
2022-12-22T04:02:02.701Z,51.12
2022-12-22T04:03:34.571Z,51.19
2022-12-22T04:05:06.268Z,51.10
2022-12-22T04:06:37.969Z,51.49
2022-12-22T04:08:09.499Z,51.15
2022-12-22T04:10:01.016Z,51.35
2022-12-22T04:11:51.155Z,51.41
2022-12-22T04:13:22.729Z,51.41
2022-12-22T04:14:54.419Z,51.40
2022-12-22T04:16:26.095Z,51.50
2022-12-22T04:17:57.977Z,51.52
2022-12-22T04:19:29.904Z,51.54
2022-12-22T04:21:01.488Z,51.63
2022-12-22T04:22:33.098Z,51.34
2022-12-22T04:24:05.213Z,51.55
2022-12-22T04:25:36.875Z,51.36
2022-12-22T04:27:08.510Z,51.13
2022-12-22T04:28:40.145Z,51.64
2022-12-22T04:30:12.038Z,51.62
2022-12-22T04:31:43.662Z,51.40
2022-12-22T04:33:15.313Z,51.36
2022-12-22T04:34:46.838Z,51.54
2022-12-22T04:36:18.677Z,51.53
2022-12-22T04:37:50.335Z,51.51
2022-12-22T04:39:22.425Z,51.46
2022-12-22T04:40:54.840Z,51.52
2022-12-22T04:42:27.053Z,51.57
2022-12-22T04:43:58.836Z,51.76
2022-12-22T04:45:30.380Z,51.44
2022-12-22T04:47:01.997Z,51.40
2022-12-22T04:48:33.564Z,51.48
2022-12-22T04:50:05.390Z,51.67
2022-12-22T04:51:36.964Z,51.79
2022-12-22T04:53:09.147Z,51.65
2022-12-22T04:54:40.763Z,51.88
2022-12-22T04:56:12.485Z,51.79
2022-12-22T04:57:44.476Z,51.87
2022-12-22T04:59:16.019Z,52.00
2022-12-22T05:00:47.592Z,52.21
2022-12-22T05:02:19.569Z,52.23
2022-12-22T05:03:51.476Z,51.86
2022-12-22T05:05:23.101Z,52.03
2022-12-22T05:06:54.968Z,52.02
2022-12-22T05:08:26.475Z,52.28
2022-12-22T05:09:58.007Z,52.35
2022-12-22T05:11:29.671Z,52.16
2022-12-22T05:13:01.399Z,52.10
2022-12-22T05:14:33.037Z,52.12
2022-12-22T05:16:11.588Z,52.34
2022-12-22T05:17:43.236Z,52.19
2022-12-22T05:19:14.912Z,51.96
2022-12-22T05:20:46.665Z,51.70
2022-12-22T05:22:18.343Z,51.79
2022-12-22T05:23:50.254Z,51.56
2022-12-22T05:25:21.796Z,51.65
2022-12-22T05:26:53.740Z,52.11
2022-12-22T05:28:25.370Z,52.12
2022-12-22T05:29:56.961Z,52.14
2022-12-22T05:31:28.649Z,52.10
2022-12-22T05:33:00.462Z,52.35
2022-12-22T05:34:32.091Z,52.35
2022-12-22T05:36:03.837Z,52.48
2022-12-22T05:37:35.584Z,52.59
2022-12-22T05:39:07.104Z,52.57
2022-12-22T05:40:38.807Z,52.35
2022-12-22T05:42:11.295Z,52.73
2022-12-22T05:43:42.996Z,52.17
2022-12-22T05:45:15.641Z,52.16
2022-12-22T05:46:47.220Z,52.23
2022-12-22T05:48:24.257Z,52.51
2022-12-22T05:49:59.076Z,52.35
2022-12-22T05:51:30.644Z,52.29
2022-12-22T05:53:02.279Z,52.53
2022-12-22T05:54:33.947Z,52.53
2022-12-22T05:56:05.720Z,52.33
2022-12-22T05:57:37.627Z,52.75
2022-12-22T05:59:10.621Z,52.46
2022-12-22T06:00:42.261Z,52.65
2022-12-22T06:02:14.043Z,52.86
2022-12-22T06:03:45.895Z,52.62
2022-12-22T06:05:17.659Z,52.77
2022-12-22T06:06:49.262Z,52.67
2022-12-22T06:08:20.912Z,52.75
2022-12-22T06:09:52.525Z,52.55
2022-12-22T06:11:24.118Z,52.61
2022-12-22T06:12:55.724Z,52.83
2022-12-22T06:14:27.329Z,53.19
2022-12-22T06:15:59.023Z,53.20
2022-12-22T06:17:30.678Z,52.57
2022-12-22T06:19:02.261Z,52.73
2022-12-22T06:20:33.898Z,52.66
2022-12-22T06:22:05.529Z,52.55
2022-12-22T06:23:37.195Z,52.42
2022-12-22T06:25:13.602Z,52.31
2022-12-22T06:26:49.008Z,52.25
2022-12-22T06:28:20.559Z,52.67
2022-12-22T06:29:52.091Z,52.33
2022-12-22T06:31:24.063Z,52.63
2022-12-22T06:32:55.646Z,52.40
2022-12-22T06:34:27.354Z,52.46
2022-12-22T06:35:59.733Z,52.42
2022-12-22T06:37:31.570Z,52.47
2022-12-22T06:39:03.250Z,52.66
2022-12-22T06:40:34.799Z,52.58
2022-12-22T06:42:25.142Z,52.80
2022-12-22T06:43:56.791Z,52.97
2022-12-22T06:45:28.675Z,52.60
2022-12-22T06:47:00.280Z,52.73
2022-12-22T06:48:31.888Z,52.44
2022-12-22T06:50:03.649Z,52.96
2022-12-22T06:51:35.300Z,53.03
2022-12-22T06:53:06.915Z,52.61
2022-12-22T06:54:38.526Z,52.40
2022-12-22T06:56:10.673Z,53.11
2022-12-22T06:57:42.644Z,52.93
2022-12-22T06:59:14.733Z,53.14
2022-12-22T07:00:48.835Z,53.32
2022-12-22T07:02:20.588Z,53.11
2022-12-22T07:03:52.534Z,52.94
2022-12-22T07:05:24.180Z,52.68
2022-12-22T07:06:56.026Z,52.98
2022-12-22T07:08:27.650Z,52.53
2022-12-22T07:09:59.187Z,52.50
2022-12-22T07:11:30.817Z,52.85
2022-12-22T07:13:19.560Z,52.84
2022-12-22T07:14:51.323Z,53.12
2022-12-22T07:16:22.957Z,52.53
2022-12-22T07:17:54.568Z,52.83
2022-12-22T07:19:26.151Z,53.03
2022-12-22T07:20:57.762Z,52.62
2022-12-22T07:22:30.816Z,52.69
2022-12-22T07:24:02.660Z,53.00
2022-12-22T07:25:34.243Z,52.70
2022-12-22T07:27:05.846Z,52.68
2022-12-22T07:28:38.002Z,53.20
2022-12-22T07:30:10.015Z,52.67
2022-12-22T07:31:41.736Z,53.05
2022-12-22T07:33:13.281Z,53.07
2022-12-22T07:34:45.194Z,52.98
2022-12-22T07:36:17.887Z,52.78
2022-12-22T07:37:49.606Z,52.66
2022-12-22T07:39:21.206Z,52.48
2022-12-22T07:41:01.280Z,52.19
2022-12-22T07:42:45.656Z,52.71
2022-12-22T07:44:17.238Z,52.71
2022-12-22T07:45:49.005Z,52.43
2022-12-22T07:47:20.822Z,52.44
2022-12-22T07:49:11.335Z,52.40
2022-12-22T07:50:44.566Z,52.35
2022-12-22T07:52:16.235Z,52.45
2022-12-22T07:53:47.910Z,52.16
2022-12-22T07:55:19.818Z,52.34
2022-12-22T07:56:51.472Z,52.42
2022-12-22T07:58:23.085Z,52.47
2022-12-22T07:59:54.939Z,52.24
2022-12-22T08:01:26.668Z,52.39
2022-12-22T08:02:58.525Z,52.26
2022-12-22T08:04:30.588Z,52.55
2022-12-22T08:06:04.446Z,52.38
2022-12-22T08:07:36.181Z,52.44
2022-12-22T08:09:08.023Z,52.32
2022-12-22T08:10:39.724Z,52.26
2022-12-22T08:12:11.437Z,52.14
2022-12-22T08:13:44.032Z,52.29
2022-12-22T08:15:15.548Z,52.49
2022-12-22T08:16:47.315Z,51.98
2022-12-22T08:18:19.189Z,52.00
2022-12-22T08:19:50.913Z,51.63
2022-12-22T08:21:22.914Z,51.71
2022-12-22T08:22:54.684Z,52.01
2022-12-22T08:24:26.569Z,52.09
2022-12-22T08:26:16.604Z,51.79
2022-12-22T08:27:48.948Z,51.76
2022-12-22T08:29:21.896Z,51.57
2022-12-22T08:30:53.726Z,52.07
2022-12-22T08:32:25.498Z,52.05
2022-12-22T08:33:57.499Z,51.92
2022-12-22T08:35:29.160Z,52.12
2022-12-22T08:37:01.060Z,51.61
2022-12-22T08:38:32.989Z,52.28
2022-12-22T08:40:05.326Z,51.63
2022-12-22T08:41:52.670Z,51.53
2022-12-22T08:43:25.145Z,51.74
2022-12-22T08:44:56.788Z,52.13
2022-12-22T08:46:29.847Z,52.24
2022-12-22T08:48:01.599Z,51.85
2022-12-22T08:49:33.476Z,51.17
2022-12-22T08:51:05.255Z,51.55
2022-12-22T08:52:37.377Z,51.67
2022-12-22T08:54:09.054Z,51.65
2022-12-22T08:55:40.930Z,51.07
2022-12-22T08:57:12.627Z,51.21
2022-12-22T08:58:44.333Z,51.89
2022-12-22T09:00:16.180Z,51.12
2022-12-22T09:01:51.432Z,51.77
2022-12-22T09:03:23.179Z,51.01
2022-12-22T09:04:54.709Z,51.33
2022-12-22T09:06:27.744Z,51.24
2022-12-22T09:08:02.894Z,51.51
2022-12-22T09:09:34.729Z,50.98
2022-12-22T09:11:06.352Z,51.53
2022-12-22T09:12:38.149Z,51.13
2022-12-22T09:14:10.149Z,50.86
2022-12-22T09:15:41.799Z,51.21
2022-12-22T09:17:13.496Z,51.18
2022-12-22T09:18:45.682Z,50.63
2022-12-22T09:20:17.410Z,51.08
2022-12-22T09:21:49.130Z,51.06
2022-12-22T09:23:21.217Z,50.61
2022-12-22T09:24:53.168Z,51.18
2022-12-22T09:26:25.352Z,50.94
2022-12-22T09:27:56.901Z,51.06
2022-12-22T09:29:28.583Z,51.06
2022-12-22T09:31:00.499Z,51.32
2022-12-22T09:32:34.673Z,51.28
2022-12-22T09:34:08.598Z,50.98
2022-12-22T09:35:42.258Z,50.97
2022-12-22T09:37:16.800Z,50.86
2022-12-22T09:38:48.522Z,50.64
2022-12-22T09:40:22.287Z,50.36
2022-12-22T09:41:55.868Z,50.54
2022-12-22T09:43:29.000Z,50.72
2022-12-22T09:45:00.634Z,50.51
2022-12-22T09:46:33.377Z,50.42
2022-12-22T09:48:05.065Z,50.66
2022-12-22T09:49:36.903Z,50.29
2022-12-22T09:51:10.938Z,50.44
2022-12-22T09:52:48.717Z,50.12
2022-12-22T09:54:20.301Z,49.97
2022-12-22T09:55:51.982Z,50.30
2022-12-22T09:57:25.092Z,49.78
2022-12-22T09:58:57.197Z,50.11
2022-12-22T10:00:30.002Z,50.22
2022-12-22T10:02:11.742Z,49.83
2022-12-22T10:04:04.241Z,50.15
2022-12-22T10:05:54.414Z,50.13
2022-12-22T10:07:26.195Z,49.70
2022-12-22T10:08:57.829Z,50.13
2022-12-22T10:10:30.339Z,50.39
2022-12-22T10:12:03.345Z,50.12
2022-12-22T10:13:35.046Z,50.09
2022-12-22T10:15:07.618Z,50.02
2022-12-22T10:16:39.419Z,49.98
2022-12-22T10:18:11.331Z,50.06
2022-12-22T10:19:43.463Z,50.01
2022-12-22T10:21:15.177Z,50.36
2022-12-22T10:22:47.299Z,50.33
2022-12-22T10:24:28.997Z,49.76
2022-12-22T10:27:59.009Z,49.62
2022-12-22T10:29:30.586Z,49.58
2022-12-22T10:31:17.355Z,49.86
2022-12-22T10:33:07.861Z,49.33
2022-12-22T10:34:52.778Z,49.50
2022-12-22T10:36:28.159Z,49.11
2022-12-22T10:37:59.812Z,49.35
2022-12-22T10:39:32.557Z,49.08
2022-12-22T10:41:07.097Z,49.09
2022-12-22T10:42:38.648Z,49.10
2022-12-22T10:44:11.592Z,49.23
2022-12-22T10:45:43.367Z,49.15
2022-12-22T10:47:18.011Z,48.77
2022-12-22T10:48:49.861Z,49.38
2022-12-22T10:50:21.650Z,48.77
2022-12-22T10:52:13.579Z,48.83
2022-12-22T10:53:49.319Z,48.72
2022-12-22T10:55:22.463Z,48.90
2022-12-22T10:57:04.908Z,48.23
2022-12-22T10:58:49.607Z,47.95
2022-12-22T11:00:28.326Z,48.35
2022-12-22T11:02:38.568Z,47.85
2022-12-22T11:04:23.829Z,48.04
2022-12-22T11:05:55.416Z,47.99
2022-12-22T11:07:27.159Z,48.38
2022-12-22T11:09:31.308Z,48.19
2022-12-22T11:10:57.809Z,48.50
2022-12-22T11:12:29.493Z,48.07
2022-12-22T11:14:19.484Z,48.64
2022-12-22T11:16:00.259Z,48.20
2022-12-22T11:17:50.567Z,48.58
2022-12-22T11:19:25.184Z,48.05
2022-12-22T11:21:02.125Z,47.84
2022-12-22T11:22:36.497Z,47.32
2022-12-22T11:24:08.280Z,47.41
2022-12-22T11:25:40.008Z,47.39
2022-12-22T11:27:24.077Z,47.52
2022-12-22T11:29:04.948Z,47.40
2022-12-22T11:30:36.539Z,47.07
2022-12-22T11:32:27.218Z,47.15
2022-12-22T11:34:20.985Z,47.10
2022-12-22T11:35:53.280Z,46.77
2022-12-22T11:37:25.013Z,46.69
2022-12-22T11:39:03.918Z,46.88
2022-12-22T11:40:42.306Z,46.37
2022-12-22T11:42:32.669Z,46.48
2022-12-22T11:44:10.540Z,46.27
2022-12-22T11:46:00.306Z,46.24
2022-12-22T11:47:50.775Z,46.17
2022-12-22T11:49:25.484Z,45.98
2022-12-22T11:51:08.014Z,45.75
2022-12-22T11:52:45.711Z,45.38
2022-12-22T11:54:39.954Z,45.66
2022-12-22T11:56:21.363Z,45.38
2022-12-22T11:57:53.012Z,45.48
2022-12-22T11:59:42.814Z,45.38
2022-12-22T12:01:26.157Z,45.02
2022-12-22T12:03:04.018Z,44.81
2022-12-22T12:04:41.920Z,44.92
2022-12-22T12:06:33.921Z,44.64
2022-12-22T12:08:17.494Z,44.66
2022-12-22T12:09:48.987Z,44.59
2022-12-22T12:11:26.274Z,44.69
2022-12-22T12:12:57.912Z,44.72
2022-12-22T12:14:32.117Z,44.16
2022-12-22T12:16:10.035Z,44.25
2022-12-22T12:17:50.740Z,44.26
2022-12-22T12:19:32.618Z,44.54
2022-12-22T12:21:22.774Z,43.91
2022-12-22T12:23:12.982Z,43.97
2022-12-22T12:24:51.132Z,43.64
2022-12-22T12:26:24.075Z,43.75
2022-12-22T12:28:00.104Z,43.58
2022-12-22T12:29:38.253Z,43.54
2022-12-22T12:31:11.340Z,43.04
2022-12-22T12:32:43.229Z,43.20
2022-12-22T12:34:15.223Z,43.38
2022-12-22T12:35:49.408Z,42.74
2022-12-22T12:37:26.633Z,42.59
2022-12-22T12:39:10.928Z,42.96
2022-12-22T12:40:42.422Z,42.99
2022-12-22T12:42:22.221Z,42.56
2022-12-22T12:43:55.220Z,42.29
2022-12-22T12:45:35.916Z,42.42
2022-12-22T12:47:26.629Z,42.51
2022-12-22T12:49:01.042Z,42.31
2022-12-22T12:50:33.730Z,42.15
2022-12-22T12:52:08.888Z,42.34
2022-12-22T12:53:40.394Z,42.17
2022-12-22T12:55:24.310Z,42.26
2022-12-22T12:57:08.313Z,41.84
2022-12-22T12:58:39.972Z,42.06
2022-12-22T13:00:30.339Z,41.81
2022-12-22T13:02:02.230Z,41.44
2022-12-22T13:04:02.377Z,41.69
2022-12-22T13:05:48.967Z,41.68
2022-12-22T13:07:40.654Z,41.09
2022-12-22T13:11:09.404Z,41.11
2022-12-22T13:12:48.533Z,41.04
2022-12-22T13:14:38.602Z,41.36
2022-12-22T13:16:16.541Z,41.20
2022-12-22T13:17:48.715Z,40.88
2022-12-22T13:19:23.540Z,40.63
2022-12-22T13:21:18.569Z,40.82
2022-12-22T13:22:52.035Z,40.46
2022-12-22T13:24:29.319Z,40.58
2022-12-22T13:26:02.029Z,40.34
2022-12-22T13:27:33.733Z,40.25
2022-12-22T13:29:09.232Z,40.24
2022-12-22T13:30:41.125Z,40.41
2022-12-22T13:32:16.814Z,40.37
2022-12-22T13:33:49.391Z,40.38
2022-12-22T13:35:43.066Z,40.47
2022-12-22T13:37:13.082Z,40.17
2022-12-22T13:38:44.766Z,40.06
2022-12-22T13:40:17.619Z,40.08
2022-12-22T13:41:49.497Z,39.99
2022-12-22T13:43:21.211Z,39.92
2022-12-22T13:44:52.776Z,39.92
2022-12-22T13:46:24.750Z,39.76
2022-12-22T13:47:57.937Z,39.77
2022-12-22T13:49:59.201Z,39.71
2022-12-22T13:51:24.958Z,39.82
2022-12-22T13:52:56.679Z,39.88
2022-12-22T13:54:35.752Z,39.65
2022-12-22T13:56:08.530Z,39.71
2022-12-22T13:57:40.553Z,39.69
2022-12-22T13:59:30.365Z,39.56
2022-12-22T14:01:02.906Z,39.45
2022-12-22T14:02:34.737Z,39.26
2022-12-22T14:04:08.000Z,39.12
2022-12-22T14:05:39.829Z,39.13
2022-12-22T14:07:12.211Z,39.26
2022-12-22T14:08:43.929Z,39.26
2022-12-22T14:10:15.617Z,39.28
2022-12-22T14:12:02.491Z,39.20
2022-12-22T14:13:34.698Z,39.19
2022-12-22T14:15:07.930Z,39.45
2022-12-22T14:16:43.228Z,39.17
2022-12-22T14:18:18.101Z,39.12
2022-12-22T14:19:59.105Z,39.32
2022-12-22T14:21:30.832Z,38.81
2022-12-22T14:23:12.645Z,39.10
2022-12-22T14:24:54.910Z,38.98
2022-12-22T14:26:26.978Z,39.05
2022-12-22T14:27:58.696Z,39.21
2022-12-22T14:29:30.192Z,38.96
2022-12-22T14:31:02.735Z,39.10
2022-12-22T14:32:38.426Z,39.12
2022-12-22T14:34:23.475Z,39.05
2022-12-22T14:36:13.763Z,38.90
2022-12-22T14:37:45.400Z,38.91
2022-12-22T14:39:24.665Z,39.15
2022-12-22T14:40:57.661Z,38.89
2022-12-22T14:42:29.712Z,39.00
2022-12-22T14:44:01.383Z,38.92
2022-12-22T14:45:33.143Z,39.04
2022-12-22T14:47:20.290Z,39.21
2022-12-22T14:48:51.950Z,38.94
2022-12-22T14:50:24.247Z,38.89
2022-12-22T14:52:00.952Z,39.14
2022-12-22T14:53:56.063Z,39.44
2022-12-22T14:55:28.680Z,38.86
2022-12-22T14:57:10.105Z,39.34
2022-12-22T14:58:47.372Z,39.61
2022-12-22T15:00:24.619Z,39.15
2022-12-22T15:02:00.583Z,40.04
2022-12-22T15:03:36.506Z,39.45
2022-12-22T15:05:14.072Z,39.75
2022-12-22T15:06:48.591Z,39.72
2022-12-22T15:08:38.998Z,39.50
2022-12-22T15:10:15.966Z,39.50
2022-12-22T15:11:52.911Z,39.68
2022-12-22T15:13:24.564Z,39.09
2022-12-22T15:14:56.153Z,39.29
2022-12-22T15:16:28.017Z,39.99
2022-12-22T15:18:00.112Z,40.12
2022-12-22T15:19:34.739Z,39.72
2022-12-22T15:21:07.824Z,39.29
2022-12-22T15:22:39.505Z,39.29
2022-12-22T15:24:17.821Z,39.88
2022-12-22T15:25:49.465Z,39.94
2022-12-22T15:27:21.168Z,40.24
2022-12-22T15:28:52.951Z,40.10
2022-12-22T15:30:29.707Z,39.80
2022-12-22T15:32:02.278Z,39.59
2022-12-22T15:33:34.239Z,39.69
2022-12-22T15:35:15.219Z,39.92
2022-12-22T15:36:46.926Z,39.70
2022-12-22T15:38:19.578Z,39.92
2022-12-22T15:39:51.111Z,39.55
2022-12-22T15:41:22.953Z,40.12
2022-12-22T15:42:54.578Z,39.97
2022-12-22T15:44:26.120Z,39.71
2022-12-22T15:45:57.980Z,40.07
2022-12-22T15:47:29.707Z,40.38
2022-12-22T15:49:01.796Z,40.17
2022-12-22T15:50:38.798Z,40.09
2022-12-22T15:52:10.917Z,40.16
2022-12-22T15:53:42.480Z,40.20
2022-12-22T15:55:14.639Z,40.19
2022-12-22T15:56:46.552Z,40.51
2022-12-22T15:58:19.638Z,40.59
2022-12-22T15:59:51.489Z,40.41
2022-12-22T16:01:24.511Z,40.71
2022-12-22T16:02:56.222Z,40.69
2022-12-22T16:04:28.625Z,40.38
2022-12-22T16:06:00.999Z,40.58
2022-12-22T16:07:32.832Z,40.43
2022-12-22T16:09:06.508Z,40.29
2022-12-22T16:10:38.235Z,40.65
2022-12-22T16:12:11.823Z,40.33
2022-12-22T16:13:43.475Z,40.83
2022-12-22T16:15:15.204Z,40.43
2022-12-22T16:16:48.522Z,40.23
2022-12-22T16:18:20.413Z,40.39
2022-12-22T16:19:52.169Z,40.47
2022-12-22T16:21:25.272Z,40.70
2022-12-22T16:22:56.999Z,40.32
2022-12-22T16:24:30.108Z,40.61
2022-12-22T16:26:02.574Z,40.52
2022-12-22T16:27:35.116Z,41.06
2022-12-22T16:29:08.474Z,40.66
2022-12-22T16:30:40.135Z,40.70
2022-12-22T16:32:21.694Z,40.95
2022-12-22T16:33:53.249Z,41.13
2022-12-22T16:35:25.797Z,41.16
2022-12-22T16:36:57.410Z,41.20
2022-12-22T16:38:29.644Z,41.26
2022-12-22T16:40:02.034Z,40.82
2022-12-22T16:41:33.781Z,41.63
2022-12-22T16:45:18.695Z,41.73
2022-12-22T16:46:50.328Z,41.42
2022-12-22T16:48:22.803Z,41.13
2022-12-22T16:49:54.616Z,41.50
2022-12-22T16:51:37.426Z,41.19
2022-12-22T16:53:09.896Z,41.60
2022-12-22T16:54:41.802Z,41.49
2022-12-22T16:56:18.209Z,41.32
2022-12-22T16:57:50.324Z,41.82
2022-12-22T16:59:22.856Z,42.01
2022-12-22T17:00:54.464Z,41.72
2022-12-22T17:02:27.479Z,41.82
2022-12-22T17:04:02.061Z,41.81
2022-12-22T17:05:44.075Z,41.21
2022-12-22T17:07:16.558Z,41.99
2022-12-22T17:08:48.244Z,41.42
2022-12-22T17:10:20.122Z,41.63
2022-12-22T17:11:51.820Z,41.85
2022-12-22T17:13:23.456Z,41.47
2022-12-22T17:14:55.155Z,41.77
2022-12-22T17:16:26.807Z,42.23
2022-12-22T17:17:58.551Z,42.40
2022-12-22T17:19:30.199Z,42.41
2022-12-22T17:21:01.947Z,42.05
2022-12-22T17:22:33.712Z,42.50
2022-12-22T17:24:06.056Z,42.03
2022-12-22T17:25:37.712Z,42.32
2022-12-22T17:27:10.432Z,42.20
2022-12-22T17:28:42.477Z,41.75
2022-12-22T17:30:18.371Z,42.33
2022-12-22T17:31:51.174Z,42.41
2022-12-22T17:33:22.940Z,42.38
2022-12-22T17:34:54.760Z,42.41
2022-12-22T17:36:28.800Z,42.44
2022-12-22T17:38:00.617Z,42.56
2022-12-22T17:39:34.196Z,42.33
2022-12-22T17:41:05.969Z,42.55
2022-12-22T17:42:37.623Z,42.79
2022-12-22T17:44:20.105Z,42.01
2022-12-22T17:45:52.535Z,42.41
2022-12-22T17:47:32.278Z,42.28
2022-12-22T17:49:06.457Z,42.14
2022-12-22T17:50:38.476Z,42.33
2022-12-22T17:52:30.735Z,42.68
2022-12-22T17:54:02.425Z,42.73
2022-12-22T17:56:07.039Z,41.87
2022-12-22T17:57:27.282Z,42.40
2022-12-22T17:58:59.377Z,42.48
2022-12-22T18:00:30.988Z,42.37
2022-12-22T18:02:02.817Z,42.93
2022-12-22T18:03:35.313Z,42.78
2022-12-22T18:05:11.574Z,42.22
2022-12-22T18:06:43.229Z,42.32
2022-12-22T18:08:16.575Z,42.41
2022-12-22T18:09:48.269Z,42.36
2022-12-22T18:11:20.123Z,42.53
2022-12-22T18:12:52.297Z,42.96
2022-12-22T18:14:24.021Z,42.31
2022-12-22T18:15:56.460Z,42.71
2022-12-22T18:17:35.090Z,42.93
2022-12-22T18:19:07.481Z,42.77
2022-12-22T18:20:39.138Z,42.94
2022-12-22T18:22:14.874Z,42.74
2022-12-22T18:23:50.274Z,42.53
2022-12-22T18:25:23.285Z,42.72
2022-12-22T18:26:54.890Z,43.23
2022-12-22T18:28:26.594Z,42.51
2022-12-22T18:29:58.624Z,43.19
2022-12-22T18:31:30.586Z,42.70
2022-12-22T18:33:02.221Z,43.36
2022-12-22T18:34:33.770Z,43.37
2022-12-22T18:36:05.773Z,43.58
2022-12-22T18:37:37.454Z,43.37
2022-12-22T18:39:16.765Z,43.58
2022-12-22T18:40:48.767Z,43.48
2022-12-22T18:42:21.487Z,43.52
2022-12-22T18:43:53.259Z,43.21
2022-12-22T18:45:26.939Z,43.53
2022-12-22T18:46:58.513Z,43.75
2022-12-22T18:48:30.326Z,43.62
2022-12-22T18:50:03.895Z,43.48
2022-12-22T18:51:36.235Z,43.53
2022-12-22T18:53:24.961Z,43.58
2022-12-22T18:54:56.636Z,43.58
2022-12-22T18:56:28.573Z,43.18
2022-12-22T18:58:00.230Z,43.71
2022-12-22T18:59:33.115Z,42.95
2022-12-22T19:01:05.073Z,43.22
2022-12-22T19:02:36.768Z,43.58
2022-12-22T19:04:08.536Z,43.94
2022-12-22T19:05:40.984Z,43.70
2022-12-22T19:07:15.879Z,43.88
2022-12-22T19:08:48.409Z,43.58
2022-12-22T19:10:38.902Z,43.49
2022-12-22T19:12:12.345Z,43.64
2022-12-22T19:13:47.476Z,43.84
2022-12-22T19:15:29.167Z,43.63
2022-12-22T19:17:00.740Z,43.42
2022-12-22T19:18:32.494Z,43.78
2022-12-22T19:20:04.394Z,43.58
2022-12-22T19:21:36.127Z,43.94
2022-12-22T19:23:08.464Z,43.52
2022-12-22T19:24:41.501Z,43.60
2022-12-22T19:26:19.068Z,43.70
2022-12-22T19:27:52.024Z,44.17
2022-12-22T19:29:23.584Z,43.65
2022-12-22T19:30:55.956Z,43.50
2022-12-22T19:32:28.489Z,43.83
2022-12-22T19:34:00.823Z,44.01
2022-12-22T19:35:32.376Z,43.74
2022-12-22T19:37:04.125Z,44.53
2022-12-22T19:38:39.489Z,43.96
2022-12-22T19:40:12.111Z,44.19
2022-12-22T19:41:43.998Z,44.39
2022-12-22T19:43:15.670Z,44.41
2022-12-22T19:44:47.458Z,44.56
2022-12-22T19:46:19.096Z,44.92
2022-12-22T19:47:50.838Z,44.34
2022-12-22T19:49:25.251Z,44.71
2022-12-22T19:50:57.086Z,44.59
2022-12-22T19:52:28.636Z,44.65
2022-12-22T19:54:00.246Z,44.79
2022-12-22T19:55:31.922Z,44.45
2022-12-22T19:57:03.775Z,44.61
2022-12-22T19:58:38.471Z,44.80
2022-12-22T20:00:20.104Z,44.73
2022-12-22T20:01:52.057Z,44.73
2022-12-22T20:03:24.703Z,44.95
2022-12-22T20:04:56.945Z,44.78
2022-12-22T20:06:28.510Z,44.73
2022-12-22T20:08:00.567Z,45.00
2022-12-22T20:09:32.371Z,45.02
2022-12-22T20:11:04.204Z,45.28
2022-12-22T20:12:36.760Z,45.25
2022-12-22T20:14:11.440Z,45.20
2022-12-22T20:15:43.214Z,45.23
2022-12-22T20:17:15.290Z,45.18
2022-12-22T20:18:46.940Z,45.26
2022-12-22T20:20:19.682Z,45.08
2022-12-22T20:21:51.597Z,45.01
2022-12-22T20:23:24.132Z,45.47
2022-12-22T20:24:55.997Z,45.12
2022-12-22T20:26:28.055Z,45.20
2022-12-22T20:27:59.735Z,45.15
2022-12-22T20:29:31.338Z,45.30
2022-12-22T20:31:03.123Z,45.23
2022-12-22T20:32:34.713Z,45.29
2022-12-22T20:34:07.613Z,45.28
2022-12-22T20:35:39.319Z,45.28
2022-12-22T20:37:14.664Z,45.39
2022-12-22T20:38:47.095Z,45.36
2022-12-22T20:40:24.876Z,45.48
2022-12-22T20:41:56.900Z,45.54
2022-12-22T20:43:28.930Z,45.50
2022-12-22T20:45:03.288Z,45.58
2022-12-22T20:46:36.281Z,45.65
2022-12-22T20:48:09.848Z,45.71
2022-12-22T20:49:41.815Z,45.85
2022-12-22T20:51:14.645Z,45.71
2022-12-22T20:52:46.491Z,45.79
2022-12-22T20:54:18.156Z,46.08